sensor_id;sensor_type;location;lat;lon;timestamp;P1;durP1;ratioP1;P2;durP2;ratioP2
2874;SDS011;1445;52.600;13.328;2023-02-04T00:00:44;2.40;;;1.60;;
2874;SDS011;1445;52.600;13.328;2023-02-04T00:03:10;3.70;;;1.95;;
2874;SDS011;1445;52.600;13.328;2023-02-04T00:05:35;3.80;;;2.30;;
2874;SDS011;1445;52.600;13.328;2023-02-04T00:08:01;4.00;;;1.92;;
2874;SDS011;1445;52.600;13.328;2023-02-04T00:10:27;3.40;;;2.35;;
2874;SDS011;1445;52.600;13.328;2023-02-04T00:12:53;4.45;;;1.90;;
2874;SDS011;1445;52.600;13.328;2023-02-04T00:15:18;3.08;;;1.80;;
2874;SDS011;1445;52.600;13.328;2023-02-04T00:17:44;2.50;;;1.80;;
2874;SDS011;1445;52.600;13.328;2023-02-04T00:20:09;4.75;;;1.70;;
2874;SDS011;1445;52.600;13.328;2023-02-04T00:22:35;2.15;;;1.80;;
2874;SDS011;1445;52.600;13.328;2023-02-04T00:25:00;2.15;;;1.45;;
2874;SDS011;1445;52.600;13.328;2023-02-04T00:27:26;11.77;;;5.22;;
2874;SDS011;1445;52.600;13.328;2023-02-04T00:29:52;6.13;;;3.00;;
2874;SDS011;1445;52.600;13.328;2023-02-04T00:32:17;7.78;;;4.45;;
2874;SDS011;1445;52.600;13.328;2023-02-04T00:34:43;4.40;;;2.03;;
2874;SDS011;1445;52.600;13.328;2023-02-04T00:37:08;5.05;;;1.95;;
2874;SDS011;1445;52.600;13.328;2023-02-04T00:39:33;3.35;;;2.28;;
2874;SDS011;1445;52.600;13.328;2023-02-04T00:41:59;2.53;;;1.73;;
2874;SDS011;1445;52.600;13.328;2023-02-04T00:44:24;2.67;;;1.10;;
2874;SDS011;1445;52.600;13.328;2023-02-04T00:46:50;3.70;;;1.90;;
2874;SDS011;1445;52.600;13.328;2023-02-04T00:49:15;3.53;;;2.38;;
2874;SDS011;1445;52.600;13.328;2023-02-04T00:51:41;3.83;;;2.20;;
2874;SDS011;1445;52.600;13.328;2023-02-04T00:54:10;4.47;;;2.63;;
2874;SDS011;1445;52.600;13.328;2023-02-04T00:56:36;4.38;;;2.30;;
2874;SDS011;1445;52.600;13.328;2023-02-04T00:59:02;4.07;;;2.05;;
2874;SDS011;1445;52.600;13.328;2023-02-04T01:01:27;5.70;;;2.50;;
2874;SDS011;1445;52.600;13.328;2023-02-04T01:03:53;4.05;;;1.65;;
2874;SDS011;1445;52.600;13.328;2023-02-04T01:06:19;2.22;;;1.63;;
2874;SDS011;1445;52.600;13.328;2023-02-04T01:08:45;3.65;;;1.90;;
2874;SDS011;1445;52.600;13.328;2023-02-04T01:11:10;5.20;;;2.42;;
2874;SDS011;1445;52.600;13.328;2023-02-04T01:13:36;4.38;;;2.42;;
2874;SDS011;1445;52.600;13.328;2023-02-04T01:16:01;4.15;;;1.98;;
2874;SDS011;1445;52.600;13.328;2023-02-04T01:18:27;7.60;;;2.47;;
2874;SDS011;1445;52.600;13.328;2023-02-04T01:20:52;4.72;;;2.10;;
2874;SDS011;1445;52.600;13.328;2023-02-04T01:23:17;3.42;;;2.03;;
2874;SDS011;1445;52.600;13.328;2023-02-04T01:25:43;3.08;;;1.98;;
2874;SDS011;1445;52.600;13.328;2023-02-04T01:28:09;3.97;;;1.73;;
2874;SDS011;1445;52.600;13.328;2023-02-04T01:30:34;2.90;;;1.63;;
2874;SDS011;1445;52.600;13.328;2023-02-04T01:32:59;3.47;;;1.90;;
2874;SDS011;1445;52.600;13.328;2023-02-04T01:35:25;3.28;;;1.27;;
2874;SDS011;1445;52.600;13.328;2023-02-04T01:37:50;1.95;;;1.35;;
2874;SDS011;1445;52.600;13.328;2023-02-04T01:40:16;3.60;;;1.90;;
2874;SDS011;1445;52.600;13.328;2023-02-04T01:42:41;4.40;;;1.98;;
2874;SDS011;1445;52.600;13.328;2023-02-04T01:45:07;2.83;;;1.70;;
2874;SDS011;1445;52.600;13.328;2023-02-04T01:47:33;4.43;;;1.70;;
2874;SDS011;1445;52.600;13.328;2023-02-04T01:49:59;3.92;;;1.52;;
2874;SDS011;1445;52.600;13.328;2023-02-04T01:52:25;2.60;;;1.45;;
2874;SDS011;1445;52.600;13.328;2023-02-04T01:54:54;3.80;;;1.42;;
2874;SDS011;1445;52.600;13.328;2023-02-04T01:57:19;2.50;;;1.30;;
2874;SDS011;1445;52.600;13.328;2023-02-04T01:59:45;2.40;;;1.35;;
2874;SDS011;1445;52.600;13.328;2023-02-04T02:05:11;4.43;;;1.80;;
2874;SDS011;1445;52.600;13.328;2023-02-04T02:07:39;3.22;;;1.48;;
2874;SDS011;1445;52.600;13.328;2023-02-04T02:10:05;3.15;;;1.35;;
2874;SDS011;1445;52.600;13.328;2023-02-04T02:12:32;4.05;;;1.70;;
2874;SDS011;1445;52.600;13.328;2023-02-04T02:14:57;2.63;;;1.45;;
2874;SDS011;1445;52.600;13.328;2023-02-04T02:17:24;3.63;;;1.40;;
2874;SDS011;1445;52.600;13.328;2023-02-04T02:19:50;3.78;;;1.40;;
2874;SDS011;1445;52.600;13.328;2023-02-04T02:22:21;3.38;;;1.50;;
2874;SDS011;1445;52.600;13.328;2023-02-04T02:25:09;4.13;;;1.33;;
2874;SDS011;1445;52.600;13.328;2023-02-04T02:27:36;4.47;;;1.58;;
2874;SDS011;1445;52.600;13.328;2023-02-04T02:30:01;4.28;;;1.60;;
2874;SDS011;1445;52.600;13.328;2023-02-04T02:32:27;4.10;;;1.52;;
2874;SDS011;1445;52.600;13.328;2023-02-04T02:34:53;4.18;;;1.65;;
2874;SDS011;1445;52.600;13.328;2023-02-04T02:37:18;2.75;;;1.60;;
2874;SDS011;1445;52.600;13.328;2023-02-04T02:39:43;2.65;;;1.48;;
2874;SDS011;1445;52.600;13.328;2023-02-04T02:42:14;4.13;;;1.65;;
2874;SDS011;1445;52.600;13.328;2023-02-04T02:44:41;1.98;;;1.20;;
2874;SDS011;1445;52.600;13.328;2023-02-04T02:47:13;3.38;;;1.50;;
2874;SDS011;1445;52.600;13.328;2023-02-04T02:49:40;2.47;;;1.58;;
2874;SDS011;1445;52.600;13.328;2023-02-04T02:52:09;4.10;;;1.60;;
2874;SDS011;1445;52.600;13.328;2023-02-04T02:54:36;4.47;;;1.70;;
2874;SDS011;1445;52.600;13.328;2023-02-04T02:57:01;3.03;;;1.50;;
2874;SDS011;1445;52.600;13.328;2023-02-04T02:59:27;2.47;;;1.30;;
2874;SDS011;1445;52.600;13.328;2023-02-04T03:01:58;4.80;;;1.17;;
2874;SDS011;1445;52.600;13.328;2023-02-04T03:04:26;4.05;;;1.60;;
2874;SDS011;1445;52.600;13.328;2023-02-04T03:06:55;4.90;;;1.60;;
2874;SDS011;1445;52.600;13.328;2023-02-04T03:09:20;6.30;;;1.65;;
2874;SDS011;1445;52.600;13.328;2023-02-04T03:11:47;5.38;;;1.58;;
2874;SDS011;1445;52.600;13.328;2023-02-04T03:14:13;4.18;;;1.67;;
2874;SDS011;1445;52.600;13.328;2023-02-04T03:16:39;3.15;;;1.48;;
2874;SDS011;1445;52.600;13.328;2023-02-04T03:19:04;4.97;;;1.70;;
2874;SDS011;1445;52.600;13.328;2023-02-04T03:21:31;4.32;;;1.70;;
2874;SDS011;1445;52.600;13.328;2023-02-04T03:23:57;6.53;;;1.40;;
2874;SDS011;1445;52.600;13.328;2023-02-04T03:26:23;1.90;;;1.20;;
2874;SDS011;1445;52.600;13.328;2023-02-04T03:28:50;3.63;;;1.40;;
2874;SDS011;1445;52.600;13.328;2023-02-04T03:31:17;4.32;;;1.50;;
2874;SDS011;1445;52.600;13.328;2023-02-04T03:33:42;2.15;;;1.48;;
2874;SDS011;1445;52.600;13.328;2023-02-04T03:36:08;4.70;;;1.20;;
2874;SDS011;1445;52.600;13.328;2023-02-04T03:38:33;2.28;;;1.33;;
2874;SDS011;1445;52.600;13.328;2023-02-04T03:40:59;7.53;;;1.60;;
2874;SDS011;1445;52.600;13.328;2023-02-04T03:43:25;3.55;;;1.27;;
2874;SDS011;1445;52.600;13.328;2023-02-04T03:45:50;4.47;;;2.03;;
2874;SDS011;1445;52.600;13.328;2023-02-04T03:48:16;9.13;;;2.03;;
2874;SDS011;1445;52.600;13.328;2023-02-04T03:50:41;4.57;;;1.30;;
2874;SDS011;1445;52.600;13.328;2023-02-04T03:53:07;6.10;;;1.50;;
2874;SDS011;1445;52.600;13.328;2023-02-04T03:55:33;5.60;;;1.50;;
2874;SDS011;1445;52.600;13.328;2023-02-04T03:57:58;2.88;;;1.50;;
2874;SDS011;1445;52.600;13.328;2023-02-04T04:00:24;7.13;;;1.55;;
2874;SDS011;1445;52.600;13.328;2023-02-04T04:02:49;5.38;;;1.77;;
2874;SDS011;1445;52.600;13.328;2023-02-04T04:05:14;7.68;;;1.77;;
2874;SDS011;1445;52.600;13.328;2023-02-04T04:07:40;6.38;;;2.13;;
2874;SDS011;1445;52.600;13.328;2023-02-04T04:10:05;4.13;;;1.40;;
2874;SDS011;1445;52.600;13.328;2023-02-04T04:12:31;3.72;;;1.40;;
2874;SDS011;1445;52.600;13.328;2023-02-04T04:14:56;5.53;;;1.60;;
2874;SDS011;1445;52.600;13.328;2023-02-04T04:17:22;3.88;;;1.63;;
2874;SDS011;1445;52.600;13.328;2023-02-04T04:19:47;3.85;;;1.52;;
2874;SDS011;1445;52.600;13.328;2023-02-04T04:22:13;7.72;;;1.92;;
2874;SDS011;1445;52.600;13.328;2023-02-04T04:24:39;5.28;;;1.40;;
2874;SDS011;1445;52.600;13.328;2023-02-04T04:27:04;3.15;;;1.30;;
2874;SDS011;1445;52.600;13.328;2023-02-04T04:29:30;3.75;;;1.55;;
2874;SDS011;1445;52.600;13.328;2023-02-04T04:31:55;7.45;;;1.63;;
2874;SDS011;1445;52.600;13.328;2023-02-04T04:34:21;4.60;;;1.45;;
2874;SDS011;1445;52.600;13.328;2023-02-04T04:36:46;5.10;;;1.50;;
2874;SDS011;1445;52.600;13.328;2023-02-04T04:39:12;3.65;;;1.65;;
2874;SDS011;1445;52.600;13.328;2023-02-04T04:41:37;3.22;;;1.27;;
2874;SDS011;1445;52.600;13.328;2023-02-04T04:44:02;3.75;;;1.50;;
2874;SDS011;1445;52.600;13.328;2023-02-04T04:46:28;5.47;;;1.63;;
2874;SDS011;1445;52.600;13.328;2023-02-04T04:48:53;6.75;;;1.70;;
2874;SDS011;1445;52.600;13.328;2023-02-04T04:51:19;4.35;;;1.60;;
2874;SDS011;1445;52.600;13.328;2023-02-04T04:53:44;4.75;;;1.55;;
2874;SDS011;1445;52.600;13.328;2023-02-04T04:56:09;3.75;;;1.80;;
2874;SDS011;1445;52.600;13.328;2023-02-04T04:58:35;2.15;;;1.27;;
2874;SDS011;1445;52.600;13.328;2023-02-04T05:01:00;3.80;;;1.50;;
2874;SDS011;1445;52.600;13.328;2023-02-04T05:03:26;3.15;;;1.50;;
2874;SDS011;1445;52.600;13.328;2023-02-04T05:05:51;6.35;;;1.90;;
2874;SDS011;1445;52.600;13.328;2023-02-04T05:08:16;3.90;;;1.85;;
2874;SDS011;1445;52.600;13.328;2023-02-04T05:10:43;4.35;;;1.80;;
2874;SDS011;1445;52.600;13.328;2023-02-04T05:13:09;4.35;;;1.63;;
2874;SDS011;1445;52.600;13.328;2023-02-04T05:15:34;4.28;;;1.70;;
2874;SDS011;1445;52.600;13.328;2023-02-04T05:18:00;6.60;;;2.08;;
2874;SDS011;1445;52.600;13.328;2023-02-04T05:20:25;4.45;;;1.77;;
2874;SDS011;1445;52.600;13.328;2023-02-04T05:22:52;5.22;;;1.85;;
2874;SDS011;1445;52.600;13.328;2023-02-04T05:25:20;4.65;;;1.83;;
2874;SDS011;1445;52.600;13.328;2023-02-04T05:27:46;5.85;;;2.15;;
2874;SDS011;1445;52.600;13.328;2023-02-04T05:30:12;6.55;;;1.77;;
2874;SDS011;1445;52.600;13.328;2023-02-04T05:32:38;2.92;;;1.60;;
2874;SDS011;1445;52.600;13.328;2023-02-04T05:35:04;2.78;;;1.70;;
2874;SDS011;1445;52.600;13.328;2023-02-04T05:37:30;4.43;;;1.63;;
2874;SDS011;1445;52.600;13.328;2023-02-04T05:39:56;4.75;;;1.80;;
2874;SDS011;1445;52.600;13.328;2023-02-04T05:42:21;4.72;;;2.35;;
2874;SDS011;1445;52.600;13.328;2023-02-04T05:44:47;4.22;;;1.85;;
2874;SDS011;1445;52.600;13.328;2023-02-04T05:47:12;5.75;;;1.52;;
2874;SDS011;1445;52.600;13.328;2023-02-04T05:49:39;3.08;;;1.48;;
2874;SDS011;1445;52.600;13.328;2023-02-04T05:52:04;7.53;;;1.83;;
2874;SDS011;1445;52.600;13.328;2023-02-04T05:54:29;3.60;;;1.85;;
2874;SDS011;1445;52.600;13.328;2023-02-04T05:56:55;4.30;;;2.03;;
2874;SDS011;1445;52.600;13.328;2023-02-04T05:59:20;9.05;;;2.00;;
2874;SDS011;1445;52.600;13.328;2023-02-04T06:01:46;3.83;;;1.98;;
2874;SDS011;1445;52.600;13.328;2023-02-04T06:04:11;4.65;;;1.90;;
2874;SDS011;1445;52.600;13.328;2023-02-04T06:06:37;4.10;;;1.90;;
2874;SDS011;1445;52.600;13.328;2023-02-04T06:09:02;4.18;;;1.80;;
2874;SDS011;1445;52.600;13.328;2023-02-04T06:11:28;6.85;;;1.80;;
2874;SDS011;1445;52.600;13.328;2023-02-04T06:13:53;7.15;;;1.80;;
2874;SDS011;1445;52.600;13.328;2023-02-04T06:16:19;7.60;;;3.08;;
2874;SDS011;1445;52.600;13.328;2023-02-04T06:18:44;4.38;;;2.10;;
2874;SDS011;1445;52.600;13.328;2023-02-04T06:21:10;6.30;;;2.20;;
2874;SDS011;1445;52.600;13.328;2023-02-04T06:23:35;3.75;;;1.80;;
2874;SDS011;1445;52.600;13.328;2023-02-04T06:26:01;4.40;;;1.63;;
2874;SDS011;1445;52.600;13.328;2023-02-04T06:28:26;7.53;;;1.83;;
2874;SDS011;1445;52.600;13.328;2023-02-04T06:30:52;4.88;;;1.80;;
2874;SDS011;1445;52.600;13.328;2023-02-04T06:33:17;7.38;;;2.10;;
2874;SDS011;1445;52.600;13.328;2023-02-04T06:35:43;6.60;;;1.83;;
2874;SDS011;1445;52.600;13.328;2023-02-04T06:38:08;4.88;;;1.92;;
2874;SDS011;1445;52.600;13.328;2023-02-04T06:40:34;7.53;;;2.17;;
2874;SDS011;1445;52.600;13.328;2023-02-04T06:42:59;5.03;;;1.85;;
2874;SDS011;1445;52.600;13.328;2023-02-04T06:45:24;5.00;;;2.00;;
2874;SDS011;1445;52.600;13.328;2023-02-04T06:47:50;3.70;;;1.80;;
2874;SDS011;1445;52.600;13.328;2023-02-04T06:50:15;4.35;;;2.00;;
2874;SDS011;1445;52.600;13.328;2023-02-04T06:52:44;3.35;;;1.98;;
2874;SDS011;1445;52.600;13.328;2023-02-04T06:55:11;4.32;;;1.85;;
2874;SDS011;1445;52.600;13.328;2023-02-04T06:57:39;5.22;;;2.08;;
2874;SDS011;1445;52.600;13.328;2023-02-04T07:00:05;3.72;;;1.95;;
2874;SDS011;1445;52.600;13.328;2023-02-04T07:02:31;9.20;;;2.42;;
2874;SDS011;1445;52.600;13.328;2023-02-04T07:04:57;3.90;;;1.92;;
2874;SDS011;1445;52.600;13.328;2023-02-04T07:07:24;5.50;;;2.03;;
2874;SDS011;1445;52.600;13.328;2023-02-04T07:09:50;4.88;;;2.20;;
2874;SDS011;1445;52.600;13.328;2023-02-04T07:12:15;6.97;;;2.20;;
2874;SDS011;1445;52.600;13.328;2023-02-04T07:14:41;3.50;;;1.90;;
2874;SDS011;1445;52.600;13.328;2023-02-04T07:17:06;5.70;;;2.10;;
2874;SDS011;1445;52.600;13.328;2023-02-04T07:19:31;3.83;;;1.88;;
2874;SDS011;1445;52.600;13.328;2023-02-04T07:21:57;4.05;;;2.05;;
2874;SDS011;1445;52.600;13.328;2023-02-04T07:24:23;4.43;;;2.03;;
2874;SDS011;1445;52.600;13.328;2023-02-04T07:26:49;6.55;;;1.90;;
2874;SDS011;1445;52.600;13.328;2023-02-04T07:29:15;4.85;;;1.75;;
2874;SDS011;1445;52.600;13.328;2023-02-04T07:31:40;3.20;;;1.80;;
2874;SDS011;1445;52.600;13.328;2023-02-04T07:34:06;6.50;;;2.70;;
2874;SDS011;1445;52.600;13.328;2023-02-04T07:36:31;3.65;;;2.08;;
2874;SDS011;1445;52.600;13.328;2023-02-04T07:38:57;4.70;;;1.98;;
2874;SDS011;1445;52.600;13.328;2023-02-04T07:41:22;4.97;;;1.70;;
2874;SDS011;1445;52.600;13.328;2023-02-04T07:43:47;4.25;;;1.60;;
2874;SDS011;1445;52.600;13.328;2023-02-04T07:46:13;4.03;;;1.88;;
2874;SDS011;1445;52.600;13.328;2023-02-04T07:48:38;3.55;;;1.58;;
2874;SDS011;1445;52.600;13.328;2023-02-04T07:51:04;4.30;;;1.75;;
2874;SDS011;1445;52.600;13.328;2023-02-04T07:53:29;4.50;;;1.60;;
2874;SDS011;1445;52.600;13.328;2023-02-04T07:55:55;5.63;;;2.00;;
2874;SDS011;1445;52.600;13.328;2023-02-04T07:58:20;9.05;;;2.78;;
2874;SDS011;1445;52.600;13.328;2023-02-04T08:00:46;6.50;;;1.75;;
2874;SDS011;1445;52.600;13.328;2023-02-04T08:03:12;6.40;;;1.70;;
2874;SDS011;1445;52.600;13.328;2023-02-04T08:05:37;4.35;;;2.15;;
2874;SDS011;1445;52.600;13.328;2023-02-04T08:08:02;4.18;;;1.70;;
2874;SDS011;1445;52.600;13.328;2023-02-04T08:10:28;5.78;;;1.80;;
2874;SDS011;1445;52.600;13.328;2023-02-04T08:12:53;3.53;;;1.60;;
2874;SDS011;1445;52.600;13.328;2023-02-04T08:15:18;4.65;;;1.75;;
2874;SDS011;1445;52.600;13.328;2023-02-04T08:17:44;3.25;;;1.38;;
2874;SDS011;1445;52.600;13.328;2023-02-04T08:20:10;4.57;;;1.85;;
2874;SDS011;1445;52.600;13.328;2023-02-04T08:22:38;2.95;;;1.52;;
2874;SDS011;1445;52.600;13.328;2023-02-04T08:25:04;6.43;;;2.35;;
2874;SDS011;1445;52.600;13.328;2023-02-04T08:27:30;5.00;;;2.13;;
2874;SDS011;1445;52.600;13.328;2023-02-04T08:29:55;3.40;;;1.85;;
2874;SDS011;1445;52.600;13.328;2023-02-04T08:32:20;4.68;;;1.80;;
2874;SDS011;1445;52.600;13.328;2023-02-04T08:34:46;6.45;;;1.50;;
2874;SDS011;1445;52.600;13.328;2023-02-04T08:37:12;5.50;;;1.60;;
2874;SDS011;1445;52.600;13.328;2023-02-04T08:39:38;3.97;;;1.90;;
2874;SDS011;1445;52.600;13.328;2023-02-04T08:42:08;3.47;;;1.80;;
2874;SDS011;1445;52.600;13.328;2023-02-04T08:44:34;12.05;;;2.10;;
2874;SDS011;1445;52.600;13.328;2023-02-04T08:46:59;2.58;;;1.77;;
2874;SDS011;1445;52.600;13.328;2023-02-04T08:49:25;5.10;;;1.80;;
2874;SDS011;1445;52.600;13.328;2023-02-04T08:51:50;3.42;;;1.40;;
2874;SDS011;1445;52.600;13.328;2023-02-04T08:54:16;4.93;;;1.42;;
2874;SDS011;1445;52.600;13.328;2023-02-04T08:56:41;3.17;;;1.60;;
2874;SDS011;1445;52.600;13.328;2023-02-04T08:59:06;5.25;;;1.55;;
2874;SDS011;1445;52.600;13.328;2023-02-04T09:01:32;3.65;;;1.45;;
2874;SDS011;1445;52.600;13.328;2023-02-04T09:03:57;4.15;;;1.30;;
2874;SDS011;1445;52.600;13.328;2023-02-04T09:06:22;5.88;;;1.50;;
2874;SDS011;1445;52.600;13.328;2023-02-04T09:08:48;5.18;;;1.50;;
2874;SDS011;1445;52.600;13.328;2023-02-04T09:11:13;2.28;;;1.33;;
2874;SDS011;1445;52.600;13.328;2023-02-04T09:13:39;3.85;;;1.40;;
2874;SDS011;1445;52.600;13.328;2023-02-04T09:16:04;4.38;;;1.58;;
2874;SDS011;1445;52.600;13.328;2023-02-04T09:18:30;3.25;;;1.40;;
2874;SDS011;1445;52.600;13.328;2023-02-04T09:20:56;4.55;;;1.20;;
2874;SDS011;1445;52.600;13.328;2023-02-04T09:23:22;2.50;;;1.00;;
2874;SDS011;1445;52.600;13.328;2023-02-04T09:25:48;3.20;;;1.00;;
2874;SDS011;1445;52.600;13.328;2023-02-04T09:28:14;2.63;;;1.02;;
2874;SDS011;1445;52.600;13.328;2023-02-04T09:30:41;2.70;;;1.25;;
2874;SDS011;1445;52.600;13.328;2023-02-04T09:33:08;4.00;;;1.42;;
2874;SDS011;1445;52.600;13.328;2023-02-04T09:35:34;3.10;;;1.40;;
2874;SDS011;1445;52.600;13.328;2023-02-04T09:38:00;3.30;;;1.35;;
2874;SDS011;1445;52.600;13.328;2023-02-04T09:40:40;3.65;;;1.08;;
2874;SDS011;1445;52.600;13.328;2023-02-04T09:43:10;2.03;;;1.10;;
2874;SDS011;1445;52.600;13.328;2023-02-04T09:45:39;3.92;;;1.17;;
2874;SDS011;1445;52.600;13.328;2023-02-04T09:48:04;3.35;;;1.00;;
2874;SDS011;1445;52.600;13.328;2023-02-04T09:50:31;2.78;;;1.17;;
2874;SDS011;1445;52.600;13.328;2023-02-04T09:52:58;3.58;;;0.90;;
2874;SDS011;1445;52.600;13.328;2023-02-04T09:55:30;3.20;;;1.20;;
2874;SDS011;1445;52.600;13.328;2023-02-04T09:57:57;2.83;;;0.80;;
2874;SDS011;1445;52.600;13.328;2023-02-04T10:00:25;3.47;;;0.95;;
2874;SDS011;1445;52.600;13.328;2023-02-04T10:02:52;3.05;;;1.35;;
2874;SDS011;1445;52.600;13.328;2023-02-04T10:05:23;2.13;;;0.85;;
2874;SDS011;1445;52.600;13.328;2023-02-04T10:07:54;5.13;;;0.98;;
2874;SDS011;1445;52.600;13.328;2023-02-04T10:10:21;1.30;;;0.85;;
2874;SDS011;1445;52.600;13.328;2023-02-04T10:12:50;1.77;;;0.88;;
2874;SDS011;1445;52.600;13.328;2023-02-04T10:15:18;2.65;;;0.90;;
2874;SDS011;1445;52.600;13.328;2023-02-04T10:17:46;1.30;;;0.73;;
2874;SDS011;1445;52.600;13.328;2023-02-04T10:20:14;1.58;;;0.80;;
2874;SDS011;1445;52.600;13.328;2023-02-04T10:22:45;2.08;;;1.05;;
2874;SDS011;1445;52.600;13.328;2023-02-04T10:25:15;2.17;;;0.80;;
2874;SDS011;1445;52.600;13.328;2023-02-04T10:27:56;2.00;;;0.65;;
2874;SDS011;1445;52.600;13.328;2023-02-04T10:30:27;2.03;;;0.73;;
2874;SDS011;1445;52.600;13.328;2023-02-04T10:36:02;2.00;;;0.80;;
2874;SDS011;1445;52.600;13.328;2023-02-04T10:38:29;1.70;;;0.70;;
2874;SDS011;1445;52.600;13.328;2023-02-04T10:41:04;2.60;;;0.90;;
2874;SDS011;1445;52.600;13.328;2023-02-04T10:43:30;2.28;;;0.70;;
2874;SDS011;1445;52.600;13.328;2023-02-04T10:45:57;3.53;;;0.80;;
2874;SDS011;1445;52.600;13.328;2023-02-04T10:48:26;3.42;;;0.57;;
2874;SDS011;1445;52.600;13.328;2023-02-04T10:50:54;1.02;;;0.52;;
2874;SDS011;1445;52.600;13.328;2023-02-04T10:53:21;2.58;;;0.63;;
2874;SDS011;1445;52.600;13.328;2023-02-04T10:56:16;1.50;;;0.65;;
2874;SDS011;1445;52.600;13.328;2023-02-04T10:58:44;1.63;;;0.70;;
2874;SDS011;1445;52.600;13.328;2023-02-04T11:01:10;1.58;;;0.70;;
2874;SDS011;1445;52.600;13.328;2023-02-04T11:03:38;2.50;;;0.85;;
2874;SDS011;1445;52.600;13.328;2023-02-04T11:06:08;6.10;;;0.85;;
2874;SDS011;1445;52.600;13.328;2023-02-04T11:08:36;2.03;;;0.80;;
2874;SDS011;1445;52.600;13.328;2023-02-04T11:18:48;1.45;;;0.70;;
2874;SDS011;1445;52.600;13.328;2023-02-04T11:21:49;1.33;;;0.70;;
2874;SDS011;1445;52.600;13.328;2023-02-04T11:39:21;1.10;;;0.60;;
2874;SDS011;1445;52.600;13.328;2023-02-04T11:41:48;1.17;;;0.70;;
2874;SDS011;1445;52.600;13.328;2023-02-04T11:44:14;1.33;;;0.60;;
2874;SDS011;1445;52.600;13.328;2023-02-04T11:46:41;1.10;;;0.40;;
2874;SDS011;1445;52.600;13.328;2023-02-04T11:49:15;1.85;;;0.77;;
2874;SDS011;1445;52.600;13.328;2023-02-04T11:51:43;1.48;;;0.73;;
2874;SDS011;1445;52.600;13.328;2023-02-04T11:54:10;1.38;;;0.60;;
2874;SDS011;1445;52.600;13.328;2023-02-04T11:56:37;1.02;;;0.60;;
2874;SDS011;1445;52.600;13.328;2023-02-04T11:59:02;2.85;;;0.80;;
2874;SDS011;1445;52.600;13.328;2023-02-04T12:01:31;2.47;;;0.50;;
2874;SDS011;1445;52.600;13.328;2023-02-04T12:03:59;1.33;;;0.57;;
2874;SDS011;1445;52.600;13.328;2023-02-04T12:06:30;1.45;;;0.70;;
2874;SDS011;1445;52.600;13.328;2023-02-04T12:09:07;1.30;;;0.55;;
2874;SDS011;1445;52.600;13.328;2023-02-04T12:11:54;0.90;;;0.60;;
2874;SDS011;1445;52.600;13.328;2023-02-04T12:14:26;1.25;;;0.60;;
2874;SDS011;1445;52.600;13.328;2023-02-04T12:16:59;1.42;;;0.40;;
2874;SDS011;1445;52.600;13.328;2023-02-04T12:19:25;2.13;;;0.60;;
2874;SDS011;1445;52.600;13.328;2023-02-04T12:21:51;0.70;;;0.40;;
2874;SDS011;1445;52.600;13.328;2023-02-04T12:24:16;1.02;;;0.40;;
2874;SDS011;1445;52.600;13.328;2023-02-04T12:26:42;1.23;;;0.50;;
2874;SDS011;1445;52.600;13.328;2023-02-04T12:29:07;0.63;;;0.40;;
2874;SDS011;1445;52.600;13.328;2023-02-04T12:31:34;0.43;;;0.40;;
2874;SDS011;1445;52.600;13.328;2023-02-04T12:34:00;1.13;;;0.63;;
2874;SDS011;1445;52.600;13.328;2023-02-04T12:36:26;2.33;;;0.77;;
2874;SDS011;1445;52.600;13.328;2023-02-04T12:38:53;1.88;;;0.60;;
2874;SDS011;1445;52.600;13.328;2023-02-04T12:41:19;1.90;;;0.70;;
2874;SDS011;1445;52.600;13.328;2023-02-04T12:43:45;1.17;;;0.60;;
2874;SDS011;1445;52.600;13.328;2023-02-04T12:46:10;3.78;;;0.85;;
2874;SDS011;1445;52.600;13.328;2023-02-04T12:48:36;2.45;;;1.33;;
2874;SDS011;1445;52.600;13.328;2023-02-04T12:51:05;3.17;;;1.00;;
2874;SDS011;1445;52.600;13.328;2023-02-04T12:53:31;2.20;;;0.98;;
2874;SDS011;1445;52.600;13.328;2023-02-04T12:55:56;5.38;;;1.35;;
2874;SDS011;1445;52.600;13.328;2023-02-04T12:58:21;1.92;;;0.90;;
2874;SDS011;1445;52.600;13.328;2023-02-04T13:00:47;2.08;;;0.80;;
2874;SDS011;1445;52.600;13.328;2023-02-04T13:03:12;1.35;;;0.80;;
2874;SDS011;1445;52.600;13.328;2023-02-04T13:05:38;1.90;;;1.08;;
2874;SDS011;1445;52.600;13.328;2023-02-04T13:08:03;1.85;;;0.82;;
2874;SDS011;1445;52.600;13.328;2023-02-04T13:10:29;1.33;;;0.82;;
2874;SDS011;1445;52.600;13.328;2023-02-04T13:12:54;1.42;;;0.68;;
2874;SDS011;1445;52.600;13.328;2023-02-04T13:15:19;1.52;;;0.70;;
2874;SDS011;1445;52.600;13.328;2023-02-04T13:17:45;2.13;;;0.73;;
2874;SDS011;1445;52.600;13.328;2023-02-04T13:20:10;2.85;;;0.85;;
2874;SDS011;1445;52.600;13.328;2023-02-04T13:22:36;1.35;;;0.70;;
2874;SDS011;1445;52.600;13.328;2023-02-04T13:25:02;1.95;;;0.70;;
2874;SDS011;1445;52.600;13.328;2023-02-04T13:27:28;1.55;;;0.65;;
2874;SDS011;1445;52.600;13.328;2023-02-04T13:29:55;2.05;;;0.70;;
2874;SDS011;1445;52.600;13.328;2023-02-04T13:32:21;1.42;;;0.90;;
2874;SDS011;1445;52.600;13.328;2023-02-04T13:34:46;1.80;;;0.98;;
2874;SDS011;1445;52.600;13.328;2023-02-04T13:37:12;2.45;;;1.10;;
2874;SDS011;1445;52.600;13.328;2023-02-04T13:39:37;2.08;;;0.90;;
2874;SDS011;1445;52.600;13.328;2023-02-04T13:42:02;1.27;;;0.63;;
2874;SDS011;1445;52.600;13.328;2023-02-04T13:44:28;1.50;;;0.77;;
2874;SDS011;1445;52.600;13.328;2023-02-04T13:46:53;1.95;;;0.75;;
2874;SDS011;1445;52.600;13.328;2023-02-04T13:49:19;2.85;;;0.90;;
2874;SDS011;1445;52.600;13.328;2023-02-04T13:51:45;1.25;;;0.68;;
2874;SDS011;1445;52.600;13.328;2023-02-04T13:54:11;1.92;;;0.60;;
2874;SDS011;1445;52.600;13.328;2023-02-04T13:56:37;1.23;;;0.60;;
2874;SDS011;1445;52.600;13.328;2023-02-04T13:59:02;1.55;;;0.60;;
2874;SDS011;1445;52.600;13.328;2023-02-04T14:01:28;1.40;;;0.70;;
2874;SDS011;1445;52.600;13.328;2023-02-04T14:03:53;1.35;;;0.50;;
2874;SDS011;1445;52.600;13.328;2023-02-04T14:06:19;1.67;;;0.77;;
2874;SDS011;1445;52.600;13.328;2023-02-04T14:08:46;1.70;;;0.70;;
2874;SDS011;1445;52.600;13.328;2023-02-04T14:11:12;2.10;;;0.90;;
2874;SDS011;1445;52.600;13.328;2023-02-04T14:13:37;1.30;;;0.90;;
2874;SDS011;1445;52.600;13.328;2023-02-04T14:16:03;2.20;;;1.10;;
2874;SDS011;1445;52.600;13.328;2023-02-04T14:18:29;1.48;;;1.00;;
2874;SDS011;1445;52.600;13.328;2023-02-04T14:20:55;2.22;;;1.25;;
2874;SDS011;1445;52.600;13.328;2023-02-04T14:23:20;1.65;;;1.02;;
2874;SDS011;1445;52.600;13.328;2023-02-04T14:25:45;1.58;;;0.80;;
2874;SDS011;1445;52.600;13.328;2023-02-04T14:28:11;1.15;;;0.80;;
2874;SDS011;1445;52.600;13.328;2023-02-04T14:30:36;3.90;;;1.63;;
2874;SDS011;1445;52.600;13.328;2023-02-04T14:33:02;0.90;;;0.60;;
2874;SDS011;1445;52.600;13.328;2023-02-04T14:35:27;1.65;;;0.70;;
2874;SDS011;1445;52.600;13.328;2023-02-04T14:37:53;1.65;;;0.80;;
2874;SDS011;1445;52.600;13.328;2023-02-04T14:40:18;2.38;;;0.90;;
2874;SDS011;1445;52.600;13.328;2023-02-04T14:42:45;1.45;;;0.77;;
2874;SDS011;1445;52.600;13.328;2023-02-04T14:45:11;1.27;;;0.88;;
2874;SDS011;1445;52.600;13.328;2023-02-04T14:47:37;3.58;;;0.93;;
2874;SDS011;1445;52.600;13.328;2023-02-04T14:50:04;1.30;;;0.82;;
2874;SDS011;1445;52.600;13.328;2023-02-04T14:52:32;2.13;;;0.80;;
2874;SDS011;1445;52.600;13.328;2023-02-04T14:54:57;3.05;;;1.50;;
2874;SDS011;1445;52.600;13.328;2023-02-04T14:57:23;1.10;;;0.80;;
2874;SDS011;1445;52.600;13.328;2023-02-04T14:59:49;1.77;;;0.98;;
2874;SDS011;1445;52.600;13.328;2023-02-04T15:02:14;1.65;;;1.10;;
2874;SDS011;1445;52.600;13.328;2023-02-04T15:04:40;1.45;;;0.70;;
2874;SDS011;1445;52.600;13.328;2023-02-04T15:07:06;1.73;;;0.70;;
2874;SDS011;1445;52.600;13.328;2023-02-04T15:09:31;2.45;;;1.27;;
2874;SDS011;1445;52.600;13.328;2023-02-04T15:11:57;1.40;;;0.80;;
2874;SDS011;1445;52.600;13.328;2023-02-04T15:14:22;1.58;;;0.95;;
2874;SDS011;1445;52.600;13.328;2023-02-04T15:16:48;2.17;;;1.10;;
2874;SDS011;1445;52.600;13.328;2023-02-04T15:19:14;2.35;;;1.50;;
2874;SDS011;1445;52.600;13.328;2023-02-04T15:21:40;2.58;;;1.42;;
2874;SDS011;1445;52.600;13.328;2023-02-04T15:24:05;1.65;;;0.80;;